Time;durP1;ratioP1;P1;durP2;ratioP2;P2;SDS_P1;SDS_P2;PMS_P1;PMS_P2;Temp;Humidity;BMP_temperature;BMP_pressure;BME280_temperature;BME280_humidity;BME280_pressure;Samples;Min_cycle;Max_cycle;Signal;HPM_P1;HPM_P2
2021/05/08 00:01:26;;;;;;;13.57;9.40;;;;;;;;;;742954;186;1020306;-74
2021/05/08 00:03:52;;;;;;;12.90;9.23;;;;;;;;;;745875;186;919338;-74
2021/05/08 00:06:18;;;;;;;14.97;10.17;;;;;;;;;;742163;187;918882;-73
2021/05/08 00:08:43;;;;;;;13.37;8.50;;;;;;;;;;740341;184;919155;-74
2021/05/08 00:11:09;;;;;;;12.70;8.97;;;;;;;;;;743367;186;915628;-74
2021/05/08 00:13:39;;;;;;;11.23;9.37;;;;;;;;;;749093;185;915997;-73
2021/05/08 00:16:05;;;;;;;13.70;8.97;;;;;;;;;;744367;186;915142;-74
2021/05/08 00:18:31;;;;;;;12.60;8.90;;;;;;;;;;744272;186;915024;-74
2021/05/08 00:20:56;;;;;;;12.80;10.30;;;;;;;;;;746883;187;917882;-73
2021/05/08 00:23:22;;;;;;;14.97;8.43;;;;;;;;;;742047;185;919579;-73
2021/05/08 00:25:48;;;;;;;13.43;9.33;;;;;;;;;;741559;185;917750;-74
2021/05/08 00:28:14;;;;;;;12.77;9.40;;;;;;;;;;743167;185;919455;-74
2021/05/08 00:30:40;;;;;;;12.68;9.50;;;;;;;;;;743855;185;918741;-74
2021/05/08 00:33:06;;;;;;;10.47;8.17;;;;;;;;;;744500;187;919075;-75
2021/05/08 00:35:31;;;;;;;13.63;9.00;;;;;;;;;;741737;185;1090959;-74
2021/05/08 00:37:57;;;;;;;15.67;9.77;;;;;;;;;;750785;186;921713;-74
2021/05/08 00:40:23;;;;;;;13.30;8.57;;;;;;;;;;744552;185;915437;-75
2021/05/08 00:42:49;;;;;;;12.07;9.20;;;;;;;;;;746418;186;915967;-75
2021/05/08 00:45:15;;;;;;;14.23;10.30;;;;;;;;;;747082;186;915115;-74
2021/05/08 00:47:41;;;;;;;15.70;9.83;;;;;;;;;;743474;185;921206;-74
2021/05/08 00:50:08;;;;;;;15.33;10.53;;;;;;;;;;744381;185;918498;-74
2021/05/08 00:52:35;;;;;;;16.55;11.50;;;;;;;;;;747872;187;920310;-71
2021/05/08 00:55:00;;;;;;;13.73;9.87;;;;;;;;;;745137;187;918921;-75
2021/05/08 00:57:26;;;;;;;13.47;10.03;;;;;;;;;;742688;185;1100865;-74
2021/05/08 00:59:52;;;;;;;15.95;10.30;;;;;;;;;;743407;185;1111820;-75
2021/05/08 01:02:18;;;;;;;16.87;11.00;;;;;;;;;;747849;187;917903;-75
2021/05/08 01:04:44;;;;;;;14.50;10.90;;;;;;;;;;746994;186;919536;-75
2021/05/08 01:07:10;;;;;;;18.00;13.07;;;;;;;;;;742284;187;918503;-75
2021/05/08 01:09:35;;;;;;;16.00;11.23;;;;;;;;;;749204;187;919318;-74
2021/05/08 01:12:01;;;;;;;12.57;9.83;;;;;;;;;;742115;187;919568;-75
2021/05/08 01:14:27;;;;;;;16.17;11.53;;;;;;;;;;742912;187;919343;-74
2021/05/08 01:16:53;;;;;;;19.33;13.07;;;;;;;;;;743878;185;877983;-75
2021/05/08 01:19:19;;;;;;;15.20;12.33;;;;;;;;;;743962;185;919454;-75
2021/05/08 01:21:45;;;;;;;16.00;11.70;;;;;;;;;;742449;187;918620;-75
2021/05/08 01:24:11;;;;;;;18.55;13.25;;;;;;;;;;746151;184;919408;-75
2021/05/08 01:26:37;;;;;;;16.40;12.47;;;;;;;;;;747846;186;919967;-76
2021/05/08 01:29:02;;;;;;;18.23;12.53;;;;;;;;;;743555;186;923976;-75
2021/05/08 01:31:28;;;;;;;23.67;14.23;;;;;;;;;;744568;185;989642;-74
2021/05/08 01:33:54;;;;;;;19.40;12.90;;;;;;;;;;745542;187;919456;-73
2021/05/08 01:36:20;;;;;;;19.77;15.07;;;;;;;;;;743296;186;920747;-75
2021/05/08 01:38:46;;;;;;;17.47;12.87;;;;;;;;;;741114;186;916933;-75
2021/05/08 01:41:12;;;;;;;24.90;14.67;;;;;;;;;;749700;187;916032;-74
2021/05/08 01:43:37;;;;;;;21.57;13.67;;;;;;;;;;738871;185;1775154;-74
2021/05/08 01:46:03;;;;;;;16.10;11.77;;;;;;;;;;745689;186;1021220;-75
2021/05/08 01:48:29;;;;;;;21.30;12.63;;;;;;;;;;743450;184;918871;-74
2021/05/08 01:50:55;;;;;;;16.63;12.30;;;;;;;;;;745779;186;918991;-75
2021/05/08 01:53:21;;;;;;;17.27;11.97;;;;;;;;;;744431;185;918660;-74
2021/05/08 01:55:47;;;;;;;19.30;13.20;;;;;;;;;;751841;186;628472;-75
2021/05/08 01:58:12;;;;;;;14.80;11.67;;;;;;;;;;750514;184;919130;-76
2021/05/08 02:00:38;;;;;;;20.17;13.07;;;;;;;;;;747098;186;918581;-73
2021/05/08 02:03:04;;;;;;;22.73;13.33;;;;;;;;;;747150;185;677870;-75
2021/05/08 02:05:30;;;;;;;24.50;13.80;;;;;;;;;;750186;188;912126;-75
2021/05/08 02:07:56;;;;;;;20.90;14.30;;;;;;;;;;746348;185;919190;-74
2021/05/08 02:10:22;;;;;;;18.63;12.90;;;;;;;;;;740479;187;927137;-75
2021/05/08 02:12:48;;;;;;;19.90;14.37;;;;;;;;;;750192;187;872759;-75
2021/05/08 02:15:14;;;;;;;20.50;14.63;;;;;;;;;;743457;184;919324;-74
2021/05/08 02:17:40;;;;;;;22.70;14.10;;;;;;;;;;745913;184;1021008;-75
2021/05/08 02:20:07;;;;;;;19.83;13.33;;;;;;;;;;743120;186;919989;-73
2021/05/08 02:22:32;;;;;;;17.53;12.07;;;;;;;;;;748121;186;918892;-75
2021/05/08 02:24:58;;;;;;;17.57;12.17;;;;;;;;;;739577;184;1212497;-74
2021/05/08 02:27:24;;;;;;;20.80;13.57;;;;;;;;;;746107;185;919055;-75
2021/05/08 02:29:50;;;;;;;24.40;14.80;;;;;;;;;;746511;185;915829;-73
2021/05/08 02:32:16;;;;;;;17.50;13.67;;;;;;;;;;742455;185;918602;-73
2021/05/08 02:34:42;;;;;;;25.30;16.33;;;;;;;;;;742339;185;1020766;-75
2021/05/08 02:37:07;;;;;;;19.57;13.50;;;;;;;;;;747721;187;920271;-75
2021/05/08 02:39:33;;;;;;;20.90;13.97;;;;;;;;;;741830;187;919125;-74
2021/05/08 02:41:59;;;;;;;21.90;14.25;;;;;;;;;;744206;187;918207;-75
2021/05/08 02:44:27;;;;;;;19.00;13.60;;;;;;;;;;743126;185;917135;-74
2021/05/08 02:46:52;;;;;;;20.43;13.73;;;;;;;;;;747825;185;919253;-75
2021/05/08 02:49:18;;;;;;;18.80;12.80;;;;;;;;;;741660;185;1019407;-74
2021/05/08 02:51:44;;;;;;;16.40;11.37;;;;;;;;;;741860;186;1020747;-74
2021/05/08 02:54:10;;;;;;;23.57;14.23;;;;;;;;;;750798;184;918929;-73
2021/05/08 02:56:36;;;;;;;24.30;14.43;;;;;;;;;;742302;186;918940;-75
2021/05/08 02:59:02;;;;;;;26.80;13.73;;;;;;;;;;743310;186;918996;-75
2021/05/08 03:01:27;;;;;;;19.80;14.57;;;;;;;;;;748815;186;919251;-74
2021/05/08 03:03:53;;;;;;;21.90;15.52;;;;;;;;;;746612;185;918870;-74
2021/05/08 03:06:19;;;;;;;20.60;14.07;;;;;;;;;;743298;186;919434;-75
2021/05/08 03:08:45;;;;;;;21.73;14.45;;;;;;;;;;747135;185;919104;-71
2021/05/08 03:11:11;;;;;;;21.40;13.83;;;;;;;;;;745341;185;1096337;-75
2021/05/08 03:13:37;;;;;;;21.80;14.23;;;;;;;;;;743462;186;919398;-75
2021/05/08 03:16:03;;;;;;;18.90;13.37;;;;;;;;;;742320;186;918376;-74
2021/05/08 03:18:29;;;;;;;20.57;12.00;;;;;;;;;;748978;185;918481;-75
2021/05/08 03:20:54;;;;;;;21.57;14.43;;;;;;;;;;744519;186;918860;-73
2021/05/08 03:23:20;;;;;;;19.53;11.93;;;;;;;;;;743755;186;919434;-74
2021/05/08 03:25:46;;;;;;;19.73;12.43;;;;;;;;;;748131;186;1020885;-75
2021/05/08 03:28:12;;;;;;;20.87;14.17;;;;;;;;;;742122;186;919572;-75
2021/05/08 03:30:38;;;;;;;22.97;14.47;;;;;;;;;;745013;186;918889;-74
2021/05/08 03:33:04;;;;;;;20.60;14.00;;;;;;;;;;747546;185;918876;-75
2021/05/08 03:35:30;;;;;;;19.40;13.53;;;;;;;;;;742905;185;919301;-75
2021/05/08 03:37:56;;;;;;;19.30;13.13;;;;;;;;;;741717;187;918892;-74
2021/05/08 03:40:22;;;;;;;18.75;12.35;;;;;;;;;;742404;185;1021489;-75
2021/05/08 03:42:48;;;;;;;20.97;12.50;;;;;;;;;;746665;187;940949;-75
2021/05/08 03:45:14;;;;;;;20.93;13.97;;;;;;;;;;745380;185;919698;-75
2021/05/08 03:47:39;;;;;;;23.70;16.37;;;;;;;;;;748140;186;624488;-75
2021/05/08 03:50:05;;;;;;;25.77;15.47;;;;;;;;;;749539;183;920678;-74
2021/05/08 03:52:31;;;;;;;25.90;16.00;;;;;;;;;;738129;185;1430130;-73
2021/05/08 03:54:57;;;;;;;25.27;16.60;;;;;;;;;;742795;185;918676;-73
2021/05/08 03:57:23;;;;;;;24.07;15.70;;;;;;;;;;747049;185;919763;-76
2021/05/08 03:59:49;;;;;;;27.80;17.63;;;;;;;;;;741957;186;974054;-74
2021/05/08 04:02:14;;;;;;;32.83;18.40;;;;;;;;;;744515;185;915712;-74
2021/05/08 04:04:40;;;;;;;29.63;18.93;;;;;;;;;;746057;183;916799;-74
2021/05/08 04:07:06;;;;;;;36.67;19.50;;;;;;;;;;753486;183;914261;-73
2021/05/08 04:09:32;;;;;;;33.88;20.52;;;;;;;;;;741297;185;919220;-72
2021/05/08 04:11:58;;;;;;;31.30;18.43;;;;;;;;;;748591;185;919182;-72
2021/05/08 04:14:24;;;;;;;35.40;20.07;;;;;;;;;;749907;185;920392;-73
2021/05/08 04:16:49;;;;;;;34.70;20.00;;;;;;;;;;743947;186;1019031;-73
2021/05/08 04:19:15;;;;;;;39.03;19.53;;;;;;;;;;743026;185;907552;-71
2021/05/08 04:21:41;;;;;;;32.57;18.97;;;;;;;;;;749455;187;917712;-72
2021/05/08 04:24:07;;;;;;;32.30;20.90;;;;;;;;;;744611;185;899749;-73
2021/05/08 04:26:33;;;;;;;41.37;22.40;;;;;;;;;;745404;186;915788;-72
2021/05/08 04:28:59;;;;;;;41.57;21.47;;;;;;;;;;746981;185;920621;-72
2021/05/08 04:31:25;;;;;;;38.22;22.87;;;;;;;;;;745050;185;919936;-71
2021/05/08 04:33:51;;;;;;;38.20;21.30;;;;;;;;;;742129;185;918097;-70
2021/05/08 04:36:16;;;;;;;29.80;18.47;;;;;;;;;;743469;186;920272;-71
2021/05/08 04:38:42;;;;;;;37.50;21.43;;;;;;;;;;749175;186;919540;-72
2021/05/08 04:41:08;;;;;;;30.33;19.00;;;;;;;;;;736537;185;1829025;-72
2021/05/08 04:43:34;;;;;;;30.60;17.90;;;;;;;;;;745592;184;1019888;-72
2021/05/08 04:46:00;;;;;;;31.23;16.73;;;;;;;;;;750877;186;918710;-72
2021/05/08 04:48:26;;;;;;;35.20;19.07;;;;;;;;;;745689;185;919243;-73
2021/05/08 04:50:51;;;;;;;30.53;18.23;;;;;;;;;;742767;185;919220;-72
2021/05/08 04:53:17;;;;;;;30.62;18.20;;;;;;;;;;750149;185;920882;-72
2021/05/08 04:55:43;;;;;;;29.43;17.57;;;;;;;;;;741463;185;919894;-71
2021/05/08 04:58:09;;;;;;;29.23;16.60;;;;;;;;;;741531;187;1008987;-71
2021/05/08 05:00:35;;;;;;;26.40;17.93;;;;;;;;;;742652;185;1081883;-70
2021/05/08 05:03:01;;;;;;;27.27;17.20;;;;;;;;;;748351;186;919594;-73
2021/05/08 05:05:27;;;;;;;31.20;19.77;;;;;;;;;;743544;185;893368;-74
2021/05/08 05:07:52;;;;;;;33.63;18.50;;;;;;;;;;743873;185;918581;-72
2021/05/08 05:10:18;;;;;;;28.23;16.77;;;;;;;;;;747721;186;918933;-71
2021/05/08 05:12:44;;;;;;;27.03;16.80;;;;;;;;;;743048;187;918466;-70
2021/05/08 05:15:11;;;;;;;34.27;18.83;;;;;;;;;;745608;187;921079;-70
2021/05/08 05:17:37;;;;;;;32.50;20.00;;;;;;;;;;747162;186;949580;-70
2021/05/08 05:20:03;;;;;;;26.90;16.23;;;;;;;;;;743647;185;916647;-70
2021/05/08 05:22:29;;;;;;;27.57;17.97;;;;;;;;;;743424;184;918836;-69
2021/05/08 05:24:55;;;;;;;28.12;17.67;;;;;;;;;;749019;185;918745;-69
2021/05/08 05:27:21;;;;;;;22.10;16.73;;;;;;;;;;747520;187;631213;-68
2021/05/08 05:29:47;;;;;;;25.37;16.75;;;;;;;;;;748571;183;917319;-68
2021/05/08 05:32:13;;;;;;;29.40;17.87;;;;;;;;;;746046;185;912809;-68
2021/05/08 05:34:39;;;;;;;27.70;17.80;;;;;;;;;;753677;185;627690;-68
2021/05/08 05:37:04;;;;;;;26.03;15.60;;;;;;;;;;745197;186;912919;-69
2021/05/08 05:39:30;;;;;;;24.13;15.83;;;;;;;;;;744945;185;916662;-69
2021/05/08 05:41:56;;;;;;;28.37;18.50;;;;;;;;;;748844;185;913468;-69
2021/05/08 05:44:22;;;;;;;23.00;16.60;;;;;;;;;;744904;185;919418;-68
2021/05/08 05:46:48;;;;;;;24.85;16.10;;;;;;;;;;731945;187;2720359;-69
2021/05/08 05:49:14;;;;;;;29.90;18.20;;;;;;;;;;752489;182;637922;-68
2021/05/08 05:51:41;;;;;;;28.00;17.30;;;;;;;;;;744248;185;918607;-70
2021/05/08 05:54:07;;;;;;;24.53;16.07;;;;;;;;;;743210;185;921385;-69
2021/05/08 05:56:33;;;;;;;25.20;17.30;;;;;;;;;;743093;187;918781;-69
2021/05/08 05:58:59;;;;;;;22.73;15.13;;;;;;;;;;748108;185;922605;-70
2021/05/08 06:01:25;;;;;;;22.52;14.32;;;;;;;;;;747482;187;872271;-70
2021/05/08 06:03:51;;;;;;;24.57;16.40;;;;;;;;;;740728;184;951285;-69
2021/05/08 06:06:16;;;;;;;30.40;18.10;;;;;;;;;;748991;186;919130;-69
2021/05/08 06:08:42;;;;;;;21.53;15.37;;;;;;;;;;742032;186;1208596;-68
2021/05/08 06:11:08;;;;;;;23.30;15.37;;;;;;;;;;742524;185;919663;-69
2021/05/08 06:13:34;;;;;;;21.87;14.77;;;;;;;;;;748079;185;941712;-68
2021/05/08 06:16:00;;;;;;;23.12;15.15;;;;;;;;;;743153;186;919405;-70
2021/05/08 06:18:25;;;;;;;21.10;15.60;;;;;;;;;;742983;186;917381;-70
2021/05/08 06:20:51;;;;;;;22.15;15.50;;;;;;;;;;742661;188;920388;-69
2021/05/08 06:23:17;;;;;;;22.20;16.40;;;;;;;;;;738944;186;915033;-69
2021/05/08 06:25:43;;;;;;;27.50;16.10;;;;;;;;;;744753;185;919327;-69
2021/05/08 06:28:09;;;;;;;19.43;13.10;;;;;;;;;;744972;184;930610;-70
2021/05/08 06:30:35;;;;;;;19.73;13.17;;;;;;;;;;752557;186;889222;-71
2021/05/08 06:33:02;;;;;;;19.20;13.87;;;;;;;;;;749834;185;725391;-69
2021/05/08 06:35:28;;;;;;;21.50;14.10;;;;;;;;;;750255;185;633427;-69
2021/05/08 06:37:54;;;;;;;16.07;11.40;;;;;;;;;;755321;185;624957;-71
2021/05/08 06:40:20;;;;;;;21.00;12.87;;;;;;;;;;746836;185;632414;-69
2021/05/08 06:42:45;;;;;;;16.13;11.43;;;;;;;;;;749500;185;636138;-69
2021/05/08 06:45:11;;;;;;;21.27;12.43;;;;;;;;;;750624;185;614584;-69
2021/05/08 06:47:39;;;;;;;17.83;12.13;;;;;;;;;;755433;184;627515;-71
2021/05/08 06:50:03;;;;;;;21.53;12.90;;;;;;;;;;742044;185;1629335;-69
2021/05/08 06:52:29;;;;;;;16.50;12.50;;;;;;;;;;747250;186;630878;-70
2021/05/08 06:54:55;;;;;;;17.40;12.30;;;;;;;;;;749932;185;651251;-71
2021/05/08 06:57:21;;;;;;;17.80;13.00;;;;;;;;;;748667;186;625006;-71
2021/05/08 06:59:47;;;;;;;18.37;11.60;;;;;;;;;;747057;185;624981;-69
2021/05/08 07:02:13;;;;;;;17.17;12.60;;;;;;;;;;751573;187;626038;-72
2021/05/08 07:04:38;;;;;;;21.00;10.53;;;;;;;;;;746635;185;628158;-69
2021/05/08 07:07:04;;;;;;;20.77;12.70;;;;;;;;;;748920;185;627718;-71
2021/05/08 07:09:30;;;;;;;18.00;13.03;;;;;;;;;;749976;185;657106;-70
2021/05/08 07:11:56;;;;;;;15.80;11.23;;;;;;;;;;744701;186;630559;-70
2021/05/08 07:14:22;;;;;;;20.57;13.73;;;;;;;;;;746479;185;656349;-69
2021/05/08 07:16:48;;;;;;;15.83;11.47;;;;;;;;;;744581;185;670074;-69
2021/05/08 07:19:13;;;;;;;16.23;12.30;;;;;;;;;;753319;186;628352;-71
2021/05/08 07:21:39;;;;;;;17.80;10.50;;;;;;;;;;749550;185;624867;-70
2021/05/08 07:24:06;;;;;;;15.00;9.60;;;;;;;;;;747524;187;662815;-72
2021/05/08 07:26:32;;;;;;;15.67;11.50;;;;;;;;;;748290;187;634982;-69
2021/05/08 07:28:59;;;;;;;18.93;12.77;;;;;;;;;;749962;184;629578;-69
2021/05/08 07:31:24;;;;;;;15.33;10.97;;;;;;;;;;746989;184;627375;-71
2021/05/08 07:33:52;;;;;;;13.60;9.80;;;;;;;;;;751991;186;626016;-71
2021/05/08 07:36:17;;;;;;;16.23;11.07;;;;;;;;;;748477;184;1267214;-70
2021/05/08 07:38:43;;;;;;;13.67;10.03;;;;;;;;;;746857;187;629455;-72
2021/05/08 07:41:09;;;;;;;13.97;9.43;;;;;;;;;;746021;187;637921;-69
2021/05/08 07:43:34;;;;;;;14.53;9.80;;;;;;;;;;751288;185;664571;-72
2021/05/08 07:46:00;;;;;;;17.13;11.93;;;;;;;;;;748825;186;620255;-70
2021/05/08 07:48:27;;;;;;;17.70;13.27;;;;;;;;;;747920;185;628368;-68
2021/05/08 07:50:52;;;;;;;15.73;11.43;;;;;;;;;;752067;186;641161;-70
2021/05/08 07:53:18;;;;;;;15.87;10.20;;;;;;;;;;746404;186;642415;-69
2021/05/08 07:55:44;;;;;;;13.20;8.90;;;;;;;;;;748202;186;633267;-68
2021/05/08 07:58:10;;;;;;;16.00;10.53;;;;;;;;;;749857;186;624527;-67
2021/05/08 08:00:35;;;;;;;13.37;9.60;;;;;;;;;;747681;186;650117;-73
2021/05/08 08:03:01;;;;;;;13.57;10.27;;;;;;;;;;745307;186;822005;-69
2021/05/08 08:05:27;;;;;;;15.10;9.50;;;;;;;;;;747213;186;652015;-71
2021/05/08 08:07:53;;;;;;;13.40;10.20;;;;;;;;;;747875;185;625749;-69
2021/05/08 08:10:19;;;;;;;12.23;7.43;;;;;;;;;;747399;186;634283;-71
2021/05/08 08:12:45;;;;;;;13.37;9.27;;;;;;;;;;746034;186;630400;-73
2021/05/08 08:15:11;;;;;;;13.97;10.60;;;;;;;;;;753439;186;643010;-67
2021/05/08 08:17:37;;;;;;;10.20;7.93;;;;;;;;;;747631;185;628167;-68
2021/05/08 08:20:03;;;;;;;13.97;9.40;;;;;;;;;;749695;186;632601;-71
2021/05/08 08:22:31;;;;;;;12.00;8.87;;;;;;;;;;751710;186;632192;-70
2021/05/08 08:24:58;;;;;;;7.70;6.90;;;;;;;;;;745975;185;685211;-68
2021/05/08 08:27:24;;;;;;;10.70;7.73;;;;;;;;;;747940;186;634897;-69
2021/05/08 08:29:49;;;;;;;9.83;7.43;;;;;;;;;;744051;187;651670;-69
2021/05/08 08:32:15;;;;;;;9.30;6.33;;;;;;;;;;749631;185;627864;-67
2021/05/08 08:34:42;;;;;;;7.37;5.03;;;;;;;;;;745799;185;622404;-71
2021/05/08 08:37:07;;;;;;;11.98;7.43;;;;;;;;;;746641;186;923414;-69
2021/05/08 08:39:33;;;;;;;11.53;7.40;;;;;;;;;;749183;185;665274;-68
2021/05/08 08:41:59;;;;;;;8.07;5.07;;;;;;;;;;749016;185;647120;-70
2021/05/08 08:44:24;;;;;;;9.23;6.40;;;;;;;;;;723839;185;5106242;-68
2021/05/08 08:46:51;;;;;;;5.43;3.30;;;;;;;;;;752018;187;624451;-68
2021/05/08 08:49:16;;;;;;;8.20;5.00;;;;;;;;;;745089;187;634300;-68
2021/05/08 08:51:42;;;;;;;5.97;4.60;;;;;;;;;;747702;186;666994;-69
2021/05/08 08:54:08;;;;;;;8.30;6.00;;;;;;;;;;745673;187;632800;-68
2021/05/08 08:56:37;;;;;;;8.50;5.60;;;;;;;;;;750577;186;633936;-71
2021/05/08 08:59:11;;;;;;;5.63;3.67;;;;;;;;;;748030;184;692926;-70
2021/05/08 09:01:29;;;;;;;7.37;4.90;;;;;;;;;;748758;186;627908;-68
2021/05/08 09:03:55;;;;;;;6.53;4.30;;;;;;;;;;753289;185;633114;-70
2021/05/08 09:06:20;;;;;;;10.30;5.20;;;;;;;;;;749890;185;615054;-69
2021/05/08 09:08:46;;;;;;;10.23;6.93;;;;;;;;;;747759;185;699989;-68
2021/05/08 09:11:17;;;;;;;9.60;5.53;;;;;;;;;;749561;186;664060;-70
2021/05/08 09:13:43;;;;;;;6.47;4.53;;;;;;;;;;751703;184;634238;-69
2021/05/08 09:16:08;;;;;;;71.30;11.17;;;;;;;;;;738379;186;2002413;-68
2021/05/08 09:18:35;;;;;;;9.00;4.17;;;;;;;;;;747586;185;636231;-68
2021/05/08 09:21:00;;;;;;;7.10;4.60;;;;;;;;;;749829;185;626045;-69
2021/05/08 09:23:33;;;;;;;7.20;4.93;;;;;;;;;;747153;186;613575;-71
2021/05/08 09:25:59;;;;;;;7.30;5.80;;;;;;;;;;748781;185;637409;-68
2021/05/08 09:28:26;;;;;;;6.23;5.00;;;;;;;;;;749041;185;626141;-67
2021/05/08 09:30:53;;;;;;;6.03;4.60;;;;;;;;;;749768;185;931903;-72
2021/05/08 09:33:20;;;;;;;7.07;4.50;;;;;;;;;;747812;185;643784;-68
2021/05/08 09:35:46;;;;;;;6.47;4.07;;;;;;;;;;747319;187;719513;-68
2021/05/08 09:38:11;;;;;;;5.57;4.07;;;;;;;;;;750686;185;643397;-70
2021/05/08 09:40:38;;;;;;;6.53;3.90;;;;;;;;;;747300;186;634350;-68
2021/05/08 09:43:09;;;;;;;5.80;3.50;;;;;;;;;;746485;185;706546;-68
2021/05/08 09:45:35;;;;;;;4.30;3.40;;;;;;;;;;746836;187;644629;-67
2021/05/08 09:48:01;;;;;;;5.83;3.37;;;;;;;;;;749278;186;629223;-67
2021/05/08 09:50:27;;;;;;;6.97;3.17;;;;;;;;;;748146;186;636750;-72
2021/05/08 09:52:53;;;;;;;5.40;3.93;;;;;;;;;;744972;185;719417;-71
2021/05/08 09:55:18;;;;;;;10.43;4.20;;;;;;;;;;751155;186;679876;-67
2021/05/08 09:57:50;;;;;;;6.20;3.20;;;;;;;;;;746817;186;639970;-71
2021/05/08 10:00:22;;;;;;;5.00;3.57;;;;;;;;;;749204;185;633243;-68
2021/05/08 10:02:47;;;;;;;5.23;3.87;;;;;;;;;;747269;185;623870;-70
2021/05/08 10:05:13;;;;;;;4.83;3.20;;;;;;;;;;752252;186;632197;-70
2021/05/08 10:07:39;;;;;;;6.17;4.07;;;;;;;;;;745079;185;654573;-68
2021/05/08 10:10:05;;;;;;;5.40;3.90;;;;;;;;;;749171;185;647977;-68
2021/05/08 10:12:31;;;;;;;6.50;3.57;;;;;;;;;;751911;184;627364;-69
2021/05/08 10:14:58;;;;;;;6.07;3.50;;;;;;;;;;747294;185;659002;-70
2021/05/08 10:17:24;;;;;;;6.27;3.77;;;;;;;;;;746428;186;633363;-68
2021/05/08 10:19:50;;;;;;;5.53;3.63;;;;;;;;;;748439;186;628025;-69
2021/05/08 10:22:16;;;;;;;17.90;6.53;;;;;;;;;;749004;185;622411;-71
2021/05/08 10:24:42;;;;;;;6.83;4.77;;;;;;;;;;747338;185;640371;-73
2021/05/08 10:27:08;;;;;;;5.80;4.70;;;;;;;;;;748291;186;623986;-70
2021/05/08 10:29:37;;;;;;;8.40;6.03;;;;;;;;;;750264;185;616294;-68
2021/05/08 10:32:04;;;;;;;7.33;5.20;;;;;;;;;;748719;186;864405;-71
2021/05/08 10:34:38;;;;;;;8.50;5.03;;;;;;;;;;746786;185;637471;-69
2021/05/08 10:37:05;;;;;;;13.07;6.23;;;;;;;;;;748802;186;636696;-68
2021/05/08 10:39:37;;;;;;;7.90;5.40;;;;;;;;;;747958;184;793914;-69
2021/05/08 10:42:03;;;;;;;12.00;5.57;;;;;;;;;;748098;185;650084;-72
2021/05/08 10:44:35;;;;;;;5.57;4.03;;;;;;;;;;745581;187;622913;-69
2021/05/08 10:47:01;;;;;;;5.80;3.60;;;;;;;;;;747508;187;622427;-69
2021/05/08 10:49:26;;;;;;;6.47;4.50;;;;;;;;;;749557;186;627262;-72
2021/05/08 10:52:01;;;;;;;5.70;4.00;;;;;;;;;;747672;184;629358;-71
2021/05/08 10:54:32;;;;;;;7.67;5.30;;;;;;;;;;745206;185;639035;-71
2021/05/08 10:57:04;;;;;;;7.80;4.47;;;;;;;;;;747286;187;624756;-69
2021/05/08 10:59:30;;;;;;;7.63;4.90;;;;;;;;;;747121;185;636504;-68
2021/05/08 11:01:56;;;;;;;5.83;4.70;;;;;;;;;;754883;184;639586;-69
2021/05/08 11:04:21;;;;;;;13.40;5.90;;;;;;;;;;745126;185;628905;-69
2021/05/08 11:06:47;;;;;;;8.30;4.67;;;;;;;;;;746680;186;658599;-69
2021/05/08 11:09:19;;;;;;;4.40;3.67;;;;;;;;;;748632;185;621335;-71
2021/05/08 11:11:45;;;;;;;6.20;4.37;;;;;;;;;;747771;185;633384;-67
2021/05/08 11:14:11;;;;;;;6.43;4.50;;;;;;;;;;745904;185;629026;-69
2021/05/08 11:16:37;;;;;;;4.87;3.90;;;;;;;;;;747170;185;627449;-69
2021/05/08 11:19:05;;;;;;;6.87;4.40;;;;;;;;;;753695;185;640341;-68
2021/05/08 11:21:37;;;;;;;6.40;4.70;;;;;;;;;;747431;185;633943;-69
2021/05/08 11:24:05;;;;;;;5.40;4.50;;;;;;;;;;749793;185;667419;-68
2021/05/08 11:26:34;;;;;;;6.90;4.07;;;;;;;;;;750829;186;638773;-68
2021/05/08 11:28:59;;;;;;;4.43;3.43;;;;;;;;;;751721;186;638271;-69
2021/05/08 11:31:25;;;;;;;6.23;3.47;;;;;;;;;;745838;186;618940;-68
2021/05/08 11:33:51;;;;;;;5.17;3.47;;;;;;;;;;748918;184;613212;-69
2021/05/08 11:36:17;;;;;;;5.93;3.77;;;;;;;;;;751711;186;614944;-69
2021/05/08 11:38:43;;;;;;;3.57;2.90;;;;;;;;;;750733;183;646581;-69
2021/05/08 11:41:14;;;;;;;6.50;3.47;;;;;;;;;;746425;187;658213;-68
2021/05/08 11:43:40;;;;;;;8.87;4.40;;;;;;;;;;748872;185;683101;-69
2021/05/08 11:46:06;;;;;;;5.57;3.70;;;;;;;;;;748959;185;1233681;-69
2021/05/08 11:48:32;;;;;;;5.00;3.73;;;;;;;;;;747776;185;623984;-70
2021/05/08 11:50:58;;;;;;;5.47;4.50;;;;;;;;;;746515;186;633152;-69
2021/05/08 11:53:24;;;;;;;6.07;3.70;;;;;;;;;;750596;185;633483;-67
2021/05/08 11:55:49;;;;;;;5.87;3.53;;;;;;;;;;746482;185;629389;-68
2021/05/08 11:58:21;;;;;;;7.90;4.60;;;;;;;;;;746880;185;622823;-69
2021/05/08 12:00:47;;;;;;;5.23;4.10;;;;;;;;;;751420;185;630890;-70
2021/05/08 12:03:13;;;;;;;4.07;3.67;;;;;;;;;;748741;185;614879;-69
2021/05/08 12:05:39;;;;;;;4.93;3.83;;;;;;;;;;748205;187;635222;-74
2021/05/08 12:08:05;;;;;;;4.80;3.60;;;;;;;;;;743947;185;830784;-68
2021/05/08 12:10:30;;;;;;;4.90;4.07;;;;;;;;;;751032;187;618398;-68
2021/05/08 12:12:56;;;;;;;4.97;3.57;;;;;;;;;;745449;185;625237;-68
2021/05/08 12:15:24;;;;;;;5.25;3.20;;;;;;;;;;748028;185;796381;-69
2021/05/08 12:17:50;;;;;;;4.97;4.07;;;;;;;;;;748895;185;643002;-68
2021/05/08 12:20:16;;;;;;;5.47;4.13;;;;;;;;;;746806;187;636776;-68
2021/05/08 12:22:42;;;;;;;3.60;3.23;;;;;;;;;;744893;185;614465;-69
2021/05/08 12:25:13;;;;;;;5.67;4.20;;;;;;;;;;752313;186;647718;-67
2021/05/08 12:27:39;;;;;;;5.10;3.07;;;;;;;;;;747338;186;913870;-69
2021/05/08 12:30:05;;;;;;;6.93;4.20;;;;;;;;;;749713;185;614846;-67
2021/05/08 12:32:31;;;;;;;5.03;3.70;;;;;;;;;;746171;184;647476;-68
2021/05/08 12:34:56;;;;;;;5.50;3.73;;;;;;;;;;752445;185;711385;-68
2021/05/08 12:37:23;;;;;;;5.33;4.30;;;;;;;;;;747556;185;633824;-68
2021/05/08 12:39:49;;;;;;;4.63;3.70;;;;;;;;;;748117;184;620304;-68
2021/05/08 12:42:15;;;;;;;6.63;4.20;;;;;;;;;;751901;185;917371;-69
2021/05/08 12:44:46;;;;;;;5.67;4.50;;;;;;;;;;743878;185;919529;-67
2021/05/08 12:47:16;;;;;;;5.73;3.77;;;;;;;;;;747364;186;919561;-68
2021/05/08 12:49:42;;;;;;;4.57;3.00;;;;;;;;;;744589;186;918968;-68
2021/05/08 12:52:13;;;;;;;4.60;3.63;;;;;;;;;;748418;186;919734;-67
2021/05/08 12:54:39;;;;;;;4.30;2.70;;;;;;;;;;746183;187;919158;-68
2021/05/08 12:57:09;;;;;;;4.60;3.20;;;;;;;;;;746307;184;907016;-68
2021/05/08 12:59:35;;;;;;;4.37;3.30;;;;;;;;;;744744;185;917753;-67
2021/05/08 13:02:06;;;;;;;5.00;3.37;;;;;;;;;;751743;185;630874;-68
2021/05/08 13:04:36;;;;;;;4.40;2.90;;;;;;;;;;747645;184;634327;-68
2021/05/08 13:07:08;;;;;;;5.90;3.90;;;;;;;;;;749510;185;617350;-68
2021/05/08 13:09:34;;;;;;;8.25;3.47;;;;;;;;;;744837;185;867020;-69
2021/05/08 13:11:59;;;;;;;4.73;3.60;;;;;;;;;;748918;187;923364;-67
2021/05/08 13:14:25;;;;;;;7.80;3.23;;;;;;;;;;743471;185;1021437;-68
2021/05/08 13:16:51;;;;;;;7.10;3.67;;;;;;;;;;745365;186;919999;-67
2021/05/08 13:19:17;;;;;;;4.23;3.30;;;;;;;;;;744838;185;919178;-69
2021/05/08 13:21:43;;;;;;;9.63;3.70;;;;;;;;;;748729;185;918457;-68
2021/05/08 13:24:10;;;;;;;4.83;3.27;;;;;;;;;;743533;185;919207;-70
2021/05/08 13:26:36;;;;;;;5.70;3.00;;;;;;;;;;742590;186;918692;-67
2021/05/08 13:29:02;;;;;;;10.87;4.63;;;;;;;;;;748435;187;918049;-67
2021/05/08 13:31:28;;;;;;;3.50;2.83;;;;;;;;;;742800;185;918804;-68
2021/05/08 13:33:54;;;;;;;4.63;2.90;;;;;;;;;;743652;185;919219;-68
2021/05/08 13:36:20;;;;;;;4.73;2.60;;;;;;;;;;742155;185;2224923;-68
2021/05/08 13:38:47;;;;;;;2.90;2.07;;;;;;;;;;747489;185;627129;-68
2021/05/08 13:41:12;;;;;;;3.90;2.30;;;;;;;;;;745179;186;631272;-66
2021/05/08 13:43:38;;;;;;;3.10;2.30;;;;;;;;;;744382;186;920518;-69
2021/05/08 13:46:04;;;;;;;3.63;2.67;;;;;;;;;;752474;183;919179;-67
2021/05/08 13:48:30;;;;;;;3.80;2.77;;;;;;;;;;745563;185;918572;-68
2021/05/08 13:50:56;;;;;;;4.10;3.07;;;;;;;;;;742800;186;920106;-68
2021/05/08 13:53:21;;;;;;;3.47;2.13;;;;;;;;;;742978;186;914660;-67
2021/05/08 13:55:47;;;;;;;2.90;2.17;;;;;;;;;;740347;188;922926;-68
2021/05/08 13:58:13;;;;;;;3.13;2.20;;;;;;;;;;739788;188;924785;-67
2021/05/08 14:00:39;;;;;;;2.80;2.10;;;;;;;;;;744058;187;919063;-69
2021/05/08 14:03:05;;;;;;;3.37;2.30;;;;;;;;;;739654;186;913242;-67
2021/05/08 14:05:31;;;;;;;4.70;2.47;;;;;;;;;;717202;194;905072;-67
2021/05/08 14:07:57;;;;;;;3.23;2.33;;;;;;;;;;747614;185;909684;-66